Time;durP1;ratioP1;P1;durP2;ratioP2;P2;SDS_P1;SDS_P2;PMS_P1;PMS_P2;Temp;Humidity;BMP_temperature;BMP_pressure;BME280_temperature;BME280_humidity;BME280_pressure;Samples;Min_cycle;Max_cycle;Signal;HPM_P1;HPM_P2
2023/01/16 00:00:51;;;;;;;3.63;1.17;;;4.20;99.90;;;;;;4195141;28;21236;-79
2023/01/16 00:02:53;;;;;;;3.03;0.90;;;4.10;99.90;;;;;;4196136;28;20877;-78
2023/01/16 00:04:55;;;;;;;4.13;1.00;;;4.10;99.90;;;;;;4194612;28;20503;-79
2023/01/16 00:06:57;;;;;;;2.30;0.90;;;4.60;99.90;;;;;;4193508;28;20478;-78
2023/01/16 00:09:00;;;;;;;4.27;0.83;;;4.10;99.90;;;;;;4189239;28;20456;-79
2023/01/16 00:11:02;;;;;;;1.67;0.60;;;4.10;99.90;;;;;;4194859;28;20462;-79
2023/01/16 00:13:05;;;;;;;2.47;0.80;;;4.10;99.90;;;;;;4210049;28;20494;-79
2023/01/16 00:15:07;;;;;;;1.73;0.70;;;4.10;99.90;;;;;;4184550;28;20457;-78
2023/01/16 00:17:09;;;;;;;1.43;0.87;;;4.10;99.90;;;;;;4194358;28;20469;-79
2023/01/16 00:19:11;;;;;;;2.37;1.10;;;4.10;99.90;;;;;;4194118;28;20514;-79
2023/01/16 00:21:13;;;;;;;2.93;0.90;;;4.10;99.90;;;;;;4211471;28;20479;-79
2023/01/16 00:23:15;;;;;;;1.27;0.70;;;4.10;99.90;;;;;;4195259;28;20517;-79
2023/01/16 00:25:18;;;;;;;2.77;1.00;;;4.10;99.90;;;;;;4195516;28;20487;-79
2023/01/16 00:27:20;;;;;;;1.57;0.80;;;4.10;99.90;;;;;;4194783;28;20467;-79
2023/01/16 00:29:23;;;;;;;3.83;1.07;;;4.10;99.90;;;;;;4191450;28;20489;-78
2023/01/16 00:31:26;;;;;;;3.50;1.27;;;4.10;99.90;;;;;;4195117;28;20452;-79
2023/01/16 00:33:28;;;;;;;3.47;1.00;;;4.10;99.90;;;;;;4209950;28;20541;-79
2023/01/16 00:35:30;;;;;;;3.90;0.90;;;4.10;99.90;;;;;;4193693;28;20460;-79
2023/01/16 00:37:32;;;;;;;2.33;1.17;;;4.10;99.90;;;;;;4198567;28;20468;-78
2023/01/16 00:39:34;;;;;;;3.20;1.00;;;4.10;99.90;;;;;;4190139;28;20452;-79
2023/01/16 00:41:37;;;;;;;3.17;1.10;;;4.00;99.90;;;;;;4222418;28;20447;-78
2023/01/16 00:43:39;;;;;;;3.57;1.00;;;4.10;99.90;;;;;;4202779;28;20460;-79
2023/01/16 00:45:42;;;;;;;3.30;1.03;;;4.10;99.90;;;;;;4196215;28;20457;-78
2023/01/16 00:47:47;;;;;;;2.93;1.07;;;4.10;99.90;;;;;;4197407;28;20464;-78
2023/01/16 00:49:49;;;;;;;2.40;1.00;;;4.10;99.90;;;;;;4202037;28;20601;-79
2023/01/16 00:51:51;;;;;;;4.00;0.90;;;4.10;99.90;;;;;;4198879;28;21034;-78
2023/01/16 00:53:53;;;;;;;3.60;1.47;;;4.10;99.90;;;;;;4197967;28;20480;-79
2023/01/16 00:55:55;;;;;;;2.10;1.00;;;4.60;99.90;;;;;;4198852;28;20460;-78
2023/01/16 00:57:58;;;;;;;2.03;0.90;;;4.10;99.90;;;;;;4198507;28;20582;-78
2023/01/16 01:00:00;;;;;;;2.83;1.00;;;4.10;99.90;;;;;;4198334;28;20495;-78
2023/01/16 01:02:02;;;;;;;5.90;1.30;;;4.20;99.90;;;;;;4199636;28;20475;-78
2023/01/16 01:04:05;;;;;;;2.77;0.80;;;4.20;99.90;;;;;;4189383;28;20475;-78
2023/01/16 01:06:07;;;;;;;2.57;1.07;;;4.20;99.90;;;;;;4198514;28;21109;-79
2023/01/16 01:08:10;;;;;;;3.27;1.30;;;4.20;99.90;;;;;;4213578;28;20891;-79
2023/01/16 01:10:12;;;;;;;5.30;1.30;;;4.20;99.90;;;;;;4198214;28;20452;-79
2023/01/16 01:12:13;;;;;;;2.97;1.20;;;4.20;99.90;;;;;;4195970;28;20484;-79
2023/01/16 01:14:17;;;;;;;1.80;0.90;;;4.20;99.90;;;;;;4210205;28;21159;-79
2023/01/16 01:16:19;;;;;;;2.70;1.10;;;4.20;99.90;;;;;;4199399;28;20481;-79
2023/01/16 01:18:21;;;;;;;2.20;0.87;;;4.20;99.90;;;;;;4207454;28;20513;-79
2023/01/16 01:20:23;;;;;;;2.73;1.00;;;4.20;99.90;;;;;;4193553;28;20444;-79
2023/01/16 01:22:27;;;;;;;3.43;1.20;;;4.20;99.90;;;;;;4191873;28;20519;-79
2023/01/16 01:24:29;;;;;;;3.57;1.20;;;4.20;99.90;;;;;;4199384;28;20448;-79
2023/01/16 01:26:31;;;;;;;3.10;1.10;;;4.20;99.90;;;;;;4194210;28;20543;-79
2023/01/16 01:28:33;;;;;;;4.93;1.30;;;4.20;99.90;;;;;;4197720;28;20922;-79
2023/01/16 01:30:36;;;;;;;4.67;1.10;;;4.20;99.90;;;;;;4196555;28;20444;-79
2023/01/16 01:32:38;;;;;;;4.13;0.90;;;4.20;99.90;;;;;;4208072;28;20487;-79
2023/01/16 01:34:40;;;;;;;3.10;1.10;;;4.30;99.90;;;;;;4197480;28;20479;-79
2023/01/16 01:36:42;;;;;;;2.33;1.10;;;4.20;99.90;;;;;;4197543;28;20486;-79
2023/01/16 01:38:46;;;;;;;1.90;0.90;;;4.30;99.90;;;;;;4193893;28;20472;-79
2023/01/16 01:40:48;;;;;;;2.70;1.10;;;4.20;99.90;;;;;;4192797;28;20989;-79
2023/01/16 01:42:53;;;;;;;3.00;0.90;;;4.20;99.90;;;;;;4195113;28;20499;-79
2023/01/16 01:44:56;;;;;;;3.37;1.00;;;4.20;99.90;;;;;;4196187;28;20467;-79
2023/01/16 01:46:59;;;;;;;2.90;1.07;;;4.20;99.90;;;;;;4198656;28;20923;-79
2023/01/16 01:49:08;;;;;;;2.53;0.83;;;4.20;99.90;;;;;;4197992;28;21048;-79
2023/01/16 01:51:14;;;;;;;2.33;0.93;;;4.20;99.90;;;;;;4195895;28;20444;-79
2023/01/16 01:53:20;;;;;;;1.33;0.80;;;4.20;99.90;;;;;;4196908;28;20530;-79
2023/01/16 01:55:23;;;;;;;5.83;1.13;;;4.20;99.90;;;;;;4197372;28;20509;-79
2023/01/16 01:57:29;;;;;;;2.90;0.87;;;4.20;99.90;;;;;;4194479;28;20488;-79
2023/01/16 01:59:36;;;;;;;2.73;1.10;;;4.10;99.90;;;;;;4196369;28;20592;-79
2023/01/16 02:01:39;;;;;;;2.67;0.93;;;4.10;99.90;;;;;;4190559;28;20547;-79
2023/01/16 02:03:47;;;;;;;3.13;0.80;;;4.10;99.90;;;;;;4197557;28;20484;-79
2023/01/16 02:05:51;;;;;;;2.63;0.80;;;4.10;99.90;;;;;;4197641;28;20495;-79
2023/01/16 02:07:54;;;;;;;5.97;1.33;;;4.10;99.90;;;;;;4205423;28;20470;-79
2023/01/16 02:10:06;;;;;;;2.63;0.80;;;4.00;99.90;;;;;;4203171;28;20523;-79
2023/01/16 02:12:10;;;;;;;1.47;0.67;;;4.00;99.90;;;;;;4204414;28;20868;-79
2023/01/16 02:14:15;;;;;;;3.93;0.97;;;3.90;99.90;;;;;;4201319;28;20580;-79
2023/01/16 02:21:10;;;;;;;2.63;0.90;;;3.80;99.90;;;;;;4196630;28;20479;-79
2023/01/16 02:23:35;;;;;;;6.13;1.00;;;3.80;99.90;;;;;;4194346;28;20519;-79
2023/01/16 02:26:21;;;;;;;4.07;0.97;;;3.80;99.90;;;;;;4195780;28;20440;-79
2023/01/16 02:28:57;;;;;;;2.07;0.67;;;3.70;99.90;;;;;;4175962;28;20566;-79
2023/01/16 02:31:19;;;;;;;2.03;0.80;;;3.70;99.90;;;;;;4194841;28;20451;-79
2023/01/16 02:33:31;;;;;;;4.63;0.90;;;3.70;99.90;;;;;;4198910;28;20495;-79
2023/01/16 02:35:54;;;;;;;1.77;0.90;;;3.60;99.90;;;;;;4197844;28;20463;-79
2023/01/16 02:38:00;;;;;;;4.00;0.97;;;3.60;99.90;;;;;;4198745;28;20537;-79
2023/01/16 02:40:17;;;;;;;3.03;0.90;;;3.60;99.90;;;;;;4199528;28;20909;-79
2023/01/16 02:42:27;;;;;;;2.43;0.80;;;3.50;99.90;;;;;;4197010;28;20484;-79
2023/01/16 02:44:36;;;;;;;5.13;1.00;;;3.50;99.90;;;;;;4198917;28;20463;-78
2023/01/16 02:46:46;;;;;;;2.43;0.97;;;3.50;99.90;;;;;;4188986;28;20478;-79
2023/01/16 02:48:53;;;;;;;1.43;0.80;;;3.50;99.90;;;;;;4192438;28;20459;-80
2023/01/16 02:51:03;;;;;;;1.23;0.80;;;3.50;99.90;;;;;;4198989;28;20464;-79
2023/01/16 02:53:14;;;;;;;5.57;1.20;;;3.40;99.90;;;;;;4192403;28;20549;-79
2023/01/16 02:55:26;;;;;;;3.37;0.83;;;3.40;99.90;;;;;;4197044;28;21229;-79
2023/01/16 02:57:34;;;;;;;1.97;0.90;;;3.40;99.90;;;;;;4196064;28;20555;-79
2023/01/16 02:59:36;;;;;;;1.53;0.60;;;3.40;99.90;;;;;;4190933;28;20544;-79
2023/01/16 03:01:40;;;;;;;2.50;0.90;;;3.30;99.90;;;;;;4196466;28;20937;-79
2023/01/16 03:03:45;;;;;;;3.63;1.00;;;3.40;99.90;;;;;;4194959;28;20456;-79
2023/01/16 03:05:53;;;;;;;2.60;0.97;;;3.40;99.90;;;;;;4195745;28;20534;-79
2023/01/16 03:08:25;;;;;;;2.97;0.80;;;3.30;99.90;;;;;;4192573;28;20448;-79
2023/01/16 03:11:06;;;;;;;5.67;1.00;;;3.30;99.90;;;;;;4192031;28;20482;-79
2023/01/16 03:13:22;;;;;;;3.60;0.77;;;3.30;99.90;;;;;;4206724;28;20525;-79
2023/01/16 03:15:31;;;;;;;1.27;0.77;;;3.30;99.90;;;;;;4189228;28;20490;-79
2023/01/16 03:17:48;;;;;;;3.63;0.90;;;3.20;99.90;;;;;;4195838;28;20512;-79
2023/01/16 03:20:04;;;;;;;3.27;0.80;;;3.20;99.90;;;;;;4207255;28;20969;-79
2023/01/16 03:22:13;;;;;;;2.10;0.90;;;3.20;99.90;;;;;;4196154;28;20480;-79
2023/01/16 03:24:27;;;;;;;4.30;1.10;;;3.20;99.90;;;;;;4194781;28;20546;-79
2023/01/16 03:26:35;;;;;;;2.47;0.93;;;3.20;99.90;;;;;;4181060;28;20894;-79
2023/01/16 03:28:47;;;;;;;3.73;0.93;;;3.20;99.90;;;;;;4189230;28;20977;-79
2023/01/16 03:30:59;;;;;;;2.57;0.80;;;3.20;99.90;;;;;;4195231;28;21014;-79
2023/01/16 03:33:07;;;;;;;4.63;0.80;;;3.10;99.90;;;;;;4194379;28;20559;-79
2023/01/16 03:35:14;;;;;;;7.50;0.87;;;3.10;99.90;;;;;;4191605;28;20474;-79
2023/01/16 03:37:20;;;;;;;3.13;0.80;;;3.10;99.90;;;;;;4196984;28;20464;-79
2023/01/16 03:39:25;;;;;;;1.87;0.83;;;3.00;99.90;;;;;;4192573;28;21020;-79
2023/01/16 03:41:30;;;;;;;1.53;0.77;;;3.10;99.90;;;;;;4198383;28;21017;-79
2023/01/16 03:43:35;;;;;;;4.27;0.80;;;3.10;99.90;;;;;;4195783;28;21264;-79
2023/01/16 03:45:42;;;;;;;3.47;0.80;;;3.00;99.90;;;;;;4195448;28;20447;-79
2023/01/16 03:47:50;;;;;;;4.77;1.10;;;3.10;99.90;;;;;;4213273;28;20542;-79
2023/01/16 03:49:59;;;;;;;1.70;0.50;;;3.10;99.90;;;;;;4177799;28;20452;-79
2023/01/16 03:52:05;;;;;;;2.17;0.73;;;3.50;99.90;;;;;;4190487;28;20609;-79
2023/01/16 03:54:11;;;;;;;2.03;1.00;;;3.10;99.90;;;;;;4215533;28;20459;-79
2023/01/16 03:56:19;;;;;;;6.13;1.03;;;3.20;99.90;;;;;;4197247;28;20520;-79
2023/01/16 03:58:28;;;;;;;5.10;0.90;;;3.10;99.90;;;;;;4209685;28;20503;-79
2023/01/16 04:00:37;;;;;;;7.53;0.90;;;3.40;99.90;;;;;;4204606;28;20701;-79
2023/01/16 04:02:46;;;;;;;2.20;0.80;;;3.10;99.90;;;;;;4192539;28;20479;-79
2023/01/16 04:04:53;;;;;;;1.80;0.70;;;3.10;99.90;;;;;;4195045;28;20444;-79
2023/01/16 04:07:02;;;;;;;1.70;0.70;;;3.10;99.90;;;;;;4197177;28;20452;-79
2023/01/16 04:09:09;;;;;;;3.87;0.90;;;3.10;99.90;;;;;;4193011;28;20455;-79
2023/01/16 04:11:14;;;;;;;4.17;0.90;;;3.10;99.90;;;;;;4192055;28;20448;-79
2023/01/16 04:13:20;;;;;;;3.37;0.70;;;3.10;99.90;;;;;;4195302;28;20464;-79
2023/01/16 04:15:24;;;;;;;4.53;1.00;;;3.10;99.90;;;;;;4195350;28;20471;-79
2023/01/16 04:17:27;;;;;;;2.03;0.70;;;3.20;99.90;;;;;;4192669;28;20451;-79
2023/01/16 04:19:31;;;;;;;4.93;1.00;;;3.10;99.90;;;;;;4194258;28;20463;-79
2023/01/16 04:21:33;;;;;;;1.57;0.80;;;3.10;99.90;;;;;;4194589;28;20451;-79
2023/01/16 04:23:37;;;;;;;4.97;0.87;;;3.10;99.90;;;;;;4186680;28;20489;-79
2023/01/16 04:25:39;;;;;;;2.13;0.80;;;3.40;99.90;;;;;;4190833;28;20834;-79
2023/01/16 04:27:41;;;;;;;2.10;0.90;;;3.10;99.90;;;;;;4193869;28;20528;-79
2023/01/16 04:29:43;;;;;;;5.80;0.90;;;3.10;99.90;;;;;;4192133;28;20467;-79
2023/01/16 04:31:45;;;;;;;4.60;0.80;;;3.10;99.90;;;;;;4190737;28;20472;-79
2023/01/16 04:33:47;;;;;;;3.67;0.80;;;3.10;99.90;;;;;;4192063;28;21005;-79
2023/01/16 04:35:49;;;;;;;5.83;0.87;;;3.10;99.90;;;;;;4194100;28;20525;-79
2023/01/16 04:37:51;;;;;;;3.83;1.00;;;3.10;99.90;;;;;;4192198;28;20528;-79
2023/01/16 04:39:54;;;;;;;1.87;0.80;;;3.10;99.90;;;;;;4193919;28;20521;-79
2023/01/16 04:41:56;;;;;;;1.37;0.73;;;3.10;99.90;;;;;;4195747;28;20795;-79
2023/01/16 04:43:58;;;;;;;3.67;0.73;;;3.10;99.90;;;;;;4191249;28;20451;-79
2023/01/16 04:46:00;;;;;;;2.93;0.80;;;3.10;99.90;;;;;;4194411;28;20468;-79
2023/01/16 04:48:02;;;;;;;3.80;0.90;;;3.10;99.90;;;;;;4191966;28;20448;-79
2023/01/16 04:50:05;;;;;;;3.67;0.70;;;3.10;99.90;;;;;;4208406;28;20455;-79
2023/01/16 04:52:07;;;;;;;2.77;0.73;;;3.10;99.90;;;;;;4206767;28;20467;-79
2023/01/16 04:54:14;;;;;;;3.97;0.70;;;3.10;99.90;;;;;;4207229;28;20487;-79
2023/01/16 04:56:17;;;;;;;2.63;0.80;;;3.10;99.90;;;;;;4192455;28;21144;-82
2023/01/16 04:58:19;;;;;;;1.33;0.73;;;3.10;99.90;;;;;;4192210;28;20447;-79
2023/01/16 05:00:21;;;;;;;5.13;1.00;;;3.10;99.90;;;;;;4193474;28;20462;-79
2023/01/16 05:02:23;;;;;;;2.27;0.90;;;3.00;99.90;;;;;;4207016;28;20467;-79
2023/01/16 05:04:25;;;;;;;2.30;1.20;;;3.10;99.90;;;;;;4193054;28;20474;-79
2023/01/16 05:06:27;;;;;;;4.13;0.93;;;3.10;99.90;;;;;;4194688;28;20476;-80
2023/01/16 05:08:30;;;;;;;2.60;0.93;;;3.10;99.90;;;;;;4187919;28;20453;-79
2023/01/16 05:10:32;;;;;;;3.63;0.90;;;3.10;99.90;;;;;;4193586;28;20527;-80
2023/01/16 05:12:35;;;;;;;1.97;0.70;;;3.10;99.90;;;;;;4193881;28;20571;-80
2023/01/16 05:14:37;;;;;;;4.47;0.90;;;3.20;99.90;;;;;;4193933;28;20483;-79
2023/01/16 05:16:41;;;;;;;2.23;0.67;;;3.80;99.90;;;;;;4193800;28;20449;-79
2023/01/16 05:18:43;;;;;;;2.67;0.80;;;3.20;99.90;;;;;;4186762;28;20495;-79
2023/01/16 05:20:45;;;;;;;2.67;0.67;;;3.20;99.90;;;;;;4193469;28;20999;-80
2023/01/16 05:22:49;;;;;;;4.20;0.70;;;3.20;99.90;;;;;;4191244;28;20529;-79
2023/01/16 05:24:51;;;;;;;4.53;1.27;;;3.20;99.90;;;;;;4197058;28;20468;-79
2023/01/16 05:26:52;;;;;;;3.17;1.00;;;3.30;99.90;;;;;;4214577;28;20477;-79
2023/01/16 05:28:56;;;;;;;4.53;1.77;;;3.30;99.90;;;;;;4196627;28;21328;-80
2023/01/16 05:30:58;;;;;;;7.13;0.87;;;3.30;99.90;;;;;;4190755;28;20543;-79
2023/01/16 05:33:01;;;;;;;4.27;1.30;;;3.30;99.90;;;;;;4195893;28;21006;-78
2023/01/16 05:35:03;;;;;;;2.37;1.00;;;3.30;99.90;;;;;;4199620;28;20833;-79
2023/01/16 05:37:05;;;;;;;2.13;0.73;;;3.30;99.90;;;;;;4200358;28;21084;-80
2023/01/16 05:39:09;;;;;;;3.07;0.70;;;3.30;99.90;;;;;;4194878;28;20503;-79
2023/01/16 05:41:11;;;;;;;1.83;0.73;;;3.30;99.90;;;;;;4194797;28;20511;-79
2023/01/16 05:43:13;;;;;;;10.43;1.83;;;3.30;99.90;;;;;;4195967;28;20460;-79
2023/01/16 05:45:17;;;;;;;5.10;1.63;;;3.30;99.90;;;;;;4192979;28;20444;-79
2023/01/16 05:47:19;;;;;;;3.40;0.90;;;3.30;99.90;;;;;;4192888;28;20448;-79
2023/01/16 05:49:21;;;;;;;3.53;0.90;;;3.30;99.90;;;;;;4193070;28;20509;-79
2023/01/16 05:51:23;;;;;;;2.30;0.73;;;3.30;99.90;;;;;;4195291;28;20460;-79
2023/01/16 05:53:27;;;;;;;2.53;0.70;;;3.30;99.90;;;;;;4194345;28;20460;-79
2023/01/16 05:55:29;;;;;;;3.77;0.90;;;3.30;99.90;;;;;;4195701;28;20472;-79
2023/01/16 05:57:31;;;;;;;3.83;1.00;;;3.50;99.90;;;;;;4192632;28;20529;-79
2023/01/16 05:59:33;;;;;;;2.37;0.83;;;3.30;99.90;;;;;;4193321;28;20482;-79
2023/01/16 06:01:36;;;;;;;3.40;1.00;;;3.30;99.90;;;;;;4212981;28;21346;-80
2023/01/16 06:03:38;;;;;;;4.13;0.87;;;3.80;99.90;;;;;;4195193;28;20457;-80
2023/01/16 06:05:40;;;;;;;3.87;0.83;;;2.80;99.90;;;;;;4200182;28;20455;-80
2023/01/16 06:07:42;;;;;;;2.80;1.20;;;3.30;99.90;;;;;;4198350;28;21030;-80
2023/01/16 06:09:44;;;;;;;3.73;1.00;;;3.30;99.90;;;;;;4197749;28;20559;-82
2023/01/16 06:11:46;;;;;;;4.90;0.73;;;3.20;99.90;;;;;;4200655;28;20468;-80
2023/01/16 06:13:48;;;;;;;5.07;0.97;;;3.30;99.90;;;;;;4196371;28;20462;-80
2023/01/16 06:15:50;;;;;;;5.70;0.80;;;3.30;99.90;;;;;;4213664;28;20471;-81
2023/01/16 06:17:53;;;;;;;2.23;1.13;;;3.30;99.90;;;;;;4198357;28;20545;-81
2023/01/16 06:19:56;;;;;;;5.77;0.83;;;3.30;99.90;;;;;;4196380;28;20509;-81
2023/01/16 06:21:58;;;;;;;7.00;1.03;;;3.30;99.90;;;;;;4199659;28;20559;-81
2023/01/16 06:24:00;;;;;;;4.10;1.00;;;3.20;99.90;;;;;;4196922;28;20467;-82
2023/01/16 06:26:05;;;;;;;2.53;1.10;;;3.20;99.90;;;;;;4195734;28;20585;-82
2023/01/16 06:28:07;;;;;;;5.43;0.83;;;3.20;99.90;;;;;;4194599;28;21069;-82
2023/01/16 06:30:10;;;;;;;1.53;0.60;;;3.20;99.90;;;;;;4197857;28;20455;-82
2023/01/16 06:32:12;;;;;;;5.67;1.90;;;3.20;99.90;;;;;;4196423;28;20476;-81
2023/01/16 06:34:16;;;;;;;4.47;1.17;;;3.20;99.90;;;;;;4196699;28;20594;-82
2023/01/16 06:36:18;;;;;;;1.40;0.73;;;3.30;99.90;;;;;;4195269;28;20476;-81
2023/01/16 06:38:20;;;;;;;1.60;0.60;;;3.20;99.90;;;;;;4196873;28;20453;-82
2023/01/16 06:40:22;;;;;;;1.67;0.60;;;3.20;99.90;;;;;;4199146;28;20889;-81
2023/01/16 06:42:24;;;;;;;4.93;0.70;;;3.20;99.90;;;;;;4198981;28;20471;-81
2023/01/16 06:44:26;;;;;;;3.20;0.97;;;3.30;99.90;;;;;;4197845;28;20460;-81
2023/01/16 06:46:28;;;;;;;5.53;1.00;;;3.20;99.90;;;;;;4195700;28;20457;-81
2023/01/16 06:48:31;;;;;;;4.07;0.80;;;3.20;99.90;;;;;;4196451;28;20807;-82
2023/01/16 06:50:35;;;;;;;2.30;0.70;;;3.20;99.90;;;;;;4192524;28;20563;-81
2023/01/16 06:52:39;;;;;;;2.97;0.80;;;3.30;99.90;;;;;;4211672;28;20475;-81
2023/01/16 06:54:44;;;;;;;2.57;0.97;;;3.20;99.90;;;;;;4211811;28;21041;-81
2023/01/16 06:56:46;;;;;;;2.67;0.80;;;3.20;99.90;;;;;;4200421;28;20491;-82
2023/01/16 06:58:48;;;;;;;3.73;1.03;;;3.30;99.90;;;;;;4211506;28;20844;-81
2023/01/16 07:00:51;;;;;;;2.60;0.90;;;3.30;99.90;;;;;;4191874;28;20456;-81
2023/01/16 07:02:55;;;;;;;2.43;0.80;;;3.30;99.90;;;;;;4210448;28;20471;-81
2023/01/16 07:04:57;;;;;;;3.83;0.80;;;3.20;99.90;;;;;;4208320;28;20855;-81
2023/01/16 07:07:00;;;;;;;4.30;0.80;;;2.60;99.90;;;;;;4210760;28;20521;-81
2023/01/16 07:09:03;;;;;;;0.83;0.53;;;3.20;99.90;;;;;;4212257;28;20501;-80
2023/01/16 07:11:09;;;;;;;3.27;0.80;;;3.10;99.90;;;;;;4195208;28;20577;-81
2023/01/16 07:13:11;;;;;;;1.50;0.80;;;3.00;99.90;;;;;;4196681;28;20484;-81
2023/01/16 07:24:40;;;;;;;2.37;0.97;;;3.00;99.90;;;;;;4179277;28;20467;-80
2023/01/16 07:26:45;;;;;;;2.03;1.07;;;3.20;99.90;;;;;;4187239;28;20464;-80
2023/01/16 07:28:49;;;;;;;3.27;1.00;;;3.00;99.90;;;;;;4211329;28;20463;-80
2023/01/16 07:30:51;;;;;;;4.90;1.03;;;3.00;99.90;;;;;;4197361;28;21208;-80
2023/01/16 07:32:54;;;;;;;7.07;1.57;;;3.00;99.90;;;;;;4211889;28;20487;-80
2023/01/16 07:34:56;;;;;;;4.60;0.80;;;3.00;99.90;;;;;;4200551;28;20460;-81
2023/01/16 07:36:58;;;;;;;1.37;0.70;;;3.00;99.90;;;;;;4199688;28;20483;-77
2023/01/16 07:39:02;;;;;;;1.00;0.70;;;3.00;99.90;;;;;;4198179;28;20479;-81
2023/01/16 07:41:05;;;;;;;2.57;1.00;;;3.00;99.90;;;;;;4206231;28;20487;-81
2023/01/16 07:43:07;;;;;;;2.33;1.17;;;2.90;99.90;;;;;;4201504;28;20480;-81
2023/01/16 07:45:10;;;;;;;2.20;0.97;;;2.90;99.90;;;;;;4204597;28;20460;-81
2023/01/16 07:47:12;;;;;;;4.30;1.00;;;2.90;99.90;;;;;;4202190;28;20517;-81
2023/01/16 07:49:14;;;;;;;3.87;0.80;;;2.90;99.90;;;;;;4203647;28;20444;-81
2023/01/16 07:51:16;;;;;;;3.60;0.87;;;2.90;99.90;;;;;;4203475;28;20452;-80
2023/01/16 07:53:21;;;;;;;2.97;0.93;;;3.30;99.90;;;;;;4200870;28;20477;-81
2023/01/16 07:55:25;;;;;;;8.37;0.80;;;2.90;99.90;;;;;;4217110;28;20467;-80
2023/01/16 07:57:27;;;;;;;2.73;0.93;;;2.80;99.90;;;;;;4215622;28;20469;-80
2023/01/16 07:59:29;;;;;;;5.50;0.87;;;2.90;99.90;;;;;;4199840;28;20458;-80
2023/01/16 08:01:31;;;;;;;1.93;0.70;;;3.00;99.90;;;;;;4195953;28;20459;-81
2023/01/16 08:03:33;;;;;;;4.17;1.07;;;2.80;99.90;;;;;;4214638;28;20502;-81
2023/01/16 08:05:35;;;;;;;2.57;1.00;;;2.80;99.90;;;;;;4200027;28;20525;-80
2023/01/16 08:07:38;;;;;;;1.87;0.80;;;2.80;99.90;;;;;;4200602;28;20900;-80
2023/01/16 08:09:40;;;;;;;3.63;0.80;;;2.80;99.90;;;;;;4194733;28;20465;-80
2023/01/16 08:11:46;;;;;;;2.10;0.83;;;2.80;99.90;;;;;;4215556;28;20463;-80
2023/01/16 08:13:48;;;;;;;1.97;0.90;;;2.80;99.90;;;;;;4203747;28;20527;-80
2023/01/16 08:15:51;;;;;;;2.23;1.10;;;2.80;99.90;;;;;;4203194;28;20483;-80
2023/01/16 08:17:53;;;;;;;2.67;0.97;;;2.80;99.90;;;;;;4203390;28;20560;-80
2023/01/16 08:19:56;;;;;;;1.50;1.00;;;2.80;99.90;;;;;;4220360;28;20448;-80
2023/01/16 08:21:58;;;;;;;2.40;0.80;;;2.80;99.90;;;;;;4205651;28;20471;-80
2023/01/16 08:24:00;;;;;;;4.67;1.50;;;2.80;99.90;;;;;;4203197;28;20441;-80
2023/01/16 08:26:02;;;;;;;3.40;1.10;;;2.80;99.90;;;;;;4199462;28;20512;-80
2023/01/16 08:28:06;;;;;;;2.73;0.83;;;2.90;99.90;;;;;;4202004;28;20455;-80
2023/01/16 08:30:10;;;;;;;5.83;1.40;;;2.80;99.90;;;;;;4211944;28;20504;-80
2023/01/16 08:32:12;;;;;;;3.30;1.10;;;2.80;99.90;;;;;;4197266;28;20471;-79
2023/01/16 08:34:14;;;;;;;3.90;1.00;;;2.80;99.90;;;;;;4209647;28;20456;-79
2023/01/16 08:36:19;;;;;;;2.07;0.97;;;2.80;99.90;;;;;;4197720;28;20499;-81
2023/01/16 08:38:24;;;;;;;3.90;0.93;;;3.20;99.90;;;;;;4192748;28;20464;-82
2023/01/16 08:40:28;;;;;;;3.03;1.00;;;2.80;99.90;;;;;;4209124;28;20865;-80
2023/01/16 08:52:02;;;;;;;4.10;1.00;;;3.00;99.90;;;;;;4193101;28;20977;-81
2023/01/16 08:54:06;;;;;;;3.20;0.90;;;3.20;99.90;;;;;;4202719;28;20448;-82
2023/01/16 08:56:09;;;;;;;1.97;1.00;;;3.10;99.90;;;;;;4209236;28;20503;-81
2023/01/16 08:58:11;;;;;;;2.37;1.00;;;3.10;99.90;;;;;;4205099;28;20557;-81
2023/01/16 09:00:15;;;;;;;2.07;0.97;;;3.20;99.90;;;;;;4218946;28;20455;-81
2023/01/16 09:02:20;;;;;;;3.53;0.90;;;3.20;99.90;;;;;;4211024;28;20509;-82
2023/01/16 09:04:24;;;;;;;3.70;0.77;;;3.20;99.90;;;;;;4199729;28;21075;-81
2023/01/16 09:06:26;;;;;;;4.27;1.00;;;3.30;99.90;;;;;;4197879;28;20452;-81
2023/01/16 09:08:28;;;;;;;2.63;0.90;;;3.30;99.90;;;;;;4199889;28;20534;-82
2023/01/16 09:10:30;;;;;;;3.03;1.10;;;3.40;99.90;;;;;;4204664;28;20452;-81
2023/01/16 09:14:52;;;;;;;4.43;0.97;;;3.50;99.90;;;;;;4198320;28;20450;-82
2023/01/16 09:16:56;;;;;;;4.57;1.33;;;3.50;99.90;;;;;;4206169;28;20834;-82
2023/01/16 09:19:02;;;;;;;2.87;1.00;;;3.60;99.90;;;;;;4222253;28;20467;-82
2023/01/16 09:21:06;;;;;;;2.50;0.90;;;3.60;99.90;;;;;;4207678;28;20643;-82
2023/01/16 09:23:08;;;;;;;1.53;0.70;;;3.70;99.90;;;;;;4218175;28;20481;-82
2023/01/16 09:25:10;;;;;;;3.07;0.83;;;3.70;99.90;;;;;;4197588;28;20517;-81
2023/01/16 09:27:13;;;;;;;2.93;0.90;;;3.80;99.90;;;;;;4198652;28;20864;-81
2023/01/16 09:29:15;;;;;;;2.23;1.43;;;3.90;99.90;;;;;;4213398;28;20455;-81
2023/01/16 09:31:19;;;;;;;7.17;1.00;;;4.20;99.90;;;;;;4194881;28;20498;-81
2023/01/16 09:33:22;;;;;;;3.53;0.90;;;4.00;99.90;;;;;;4197412;28;20542;-80
2023/01/16 09:35:24;;;;;;;6.80;1.20;;;4.00;99.90;;;;;;4194888;28;20453;-83
2023/01/16 09:37:26;;;;;;;2.23;0.90;;;4.10;99.90;;;;;;4197939;28;20476;-81
2023/01/16 09:39:29;;;;;;;6.07;1.10;;;4.10;99.90;;;;;;4196136;28;20498;-82
2023/01/16 09:43:54;;;;;;;2.50;0.80;;;4.30;99.90;;;;;;4197359;28;20440;-81
2023/01/16 09:45:59;;;;;;;3.87;1.00;;;4.40;99.90;;;;;;4187839;28;20483;-81
2023/01/16 09:48:05;;;;;;;1.47;0.80;;;4.30;99.90;;;;;;4211436;28;20468;-82
2023/01/16 09:50:16;;;;;;;2.30;0.80;;;4.40;99.90;;;;;;4209270;28;20447;-82
2023/01/16 09:59:38;;;;;;;4.40;1.07;;;5.00;99.90;;;;;;4198031;28;20536;-82
2023/01/16 10:01:44;;;;;;;3.10;1.10;;;4.70;99.90;;;;;;4193198;28;20481;-82
2023/01/16 10:03:47;;;;;;;4.67;1.07;;;4.50;99.90;;;;;;4206508;28;20591;-81
2023/01/16 10:05:58;;;;;;;2.77;0.90;;;4.50;99.90;;;;;;4195486;28;20510;-82
2023/01/16 10:08:09;;;;;;;3.73;0.90;;;4.60;99.90;;;;;;4195246;28;20453;-82
2023/01/16 10:10:27;;;;;;;2.40;0.83;;;4.60;99.90;;;;;;4212098;28;20819;-82
2023/01/16 10:12:34;;;;;;;4.83;1.10;;;5.00;99.90;;;;;;4195500;28;20490;-81
2023/01/16 10:14:58;;;;;;;2.90;0.83;;;4.70;99.90;;;;;;4195131;28;20488;-82
2023/01/16 10:17:13;;;;;;;2.10;0.83;;;4.80;99.90;;;;;;4211565;28;20475;-81
2023/01/16 10:19:28;;;;;;;3.77;1.07;;;4.80;99.90;;;;;;4193599;28;20465;-82
2023/01/16 10:21:51;;;;;;;4.27;1.20;;;4.90;99.90;;;;;;4196326;28;20514;-81
2023/01/16 10:23:59;;;;;;;2.90;1.10;;;4.90;99.90;;;;;;4196280;28;20511;-82
2023/01/16 10:26:07;;;;;;;1.37;0.90;;;4.90;99.90;;;;;;4213735;28;20890;-81
2023/01/16 10:28:27;;;;;;;5.10;1.17;;;5.00;99.90;;;;;;4198042;28;20456;-82
2023/01/16 10:30:32;;;;;;;4.23;1.27;;;5.00;99.90;;;;;;4209529;28;20452;-82
2023/01/16 10:32:42;;;;;;;6.20;1.20;;;5.10;99.90;;;;;;4198728;28;20473;-81
2023/01/16 10:34:53;;;;;;;5.53;1.10;;;5.20;99.90;;;;;;4196421;28;20492;-81
2023/01/16 10:36:59;;;;;;;4.60;1.00;;;5.30;99.90;;;;;;4199133;28;20764;-82
2023/01/16 10:39:01;;;;;;;2.10;0.93;;;5.30;99.90;;;;;;4199276;28;20503;-82
2023/01/16 10:49:25;;;;;;;4.63;1.20;;;5.40;99.90;;;;;;4214394;28;20465;-81
2023/01/16 10:50:40;;;;;;;2.33;0.80;;;5.60;99.90;;;;;;4194108;28;21026;-81
2023/01/16 10:52:44;;;;;;;2.67;1.00;;;5.70;99.90;;;;;;4194379;28;20498;-80
2023/01/16 10:54:52;;;;;;;4.00;0.90;;;5.70;99.90;;;;;;4195069;28;20451;-77
2023/01/16 10:56:57;;;;;;;2.27;0.80;;;5.90;99.90;;;;;;4197322;28;20499;-78
2023/01/16 10:59:00;;;;;;;2.37;0.90;;;5.90;99.90;;;;;;4211416;28;20526;-82
2023/01/16 11:01:05;;;;;;;4.07;1.10;;;6.00;99.90;;;;;;4190339;28;21035;-76
2023/01/16 11:03:18;;;;;;;4.03;0.83;;;6.10;99.90;;;;;;4196283;28;20496;-81
2023/01/16 11:05:26;;;;;;;4.00;1.00;;;6.20;99.90;;;;;;4192359;28;21012;-80
2023/01/16 11:07:30;;;;;;;2.07;0.87;;;6.30;99.90;;;;;;4196313;28;20459;-82
2023/01/16 11:09:38;;;;;;;3.37;1.00;;;6.40;99.90;;;;;;4194929;28;20457;-80
2023/01/16 11:18:42;;;;;;;4.47;1.00;;;6.70;99.90;;;;;;4196087;28;21443;-82
2023/01/16 11:20:49;;;;;;;2.70;1.20;;;6.70;99.90;;;;;;4190357;28;20601;-82
2023/01/16 11:22:58;;;;;;;2.97;1.00;;;6.80;99.90;;;;;;4192839;28;20475;-82
2023/01/16 11:25:04;;;;;;;2.07;0.90;;;6.80;99.90;;;;;;4192237;28;20454;-82
2023/01/16 11:27:13;;;;;;;2.87;0.70;;;6.90;99.90;;;;;;4193752;28;20543;-80
2023/01/16 11:29:17;;;;;;;2.43;0.90;;;6.90;99.90;;;;;;4200117;28;20862;-80
2023/01/16 11:31:24;;;;;;;3.93;0.90;;;7.00;99.90;;;;;;4198293;28;20459;-81
2023/01/16 11:33:33;;;;;;;4.10;1.00;;;7.20;99.90;;;;;;4213378;28;20462;-81
2023/01/16 11:35:37;;;;;;;2.43;0.80;;;7.10;99.90;;;;;;4197515;28;20477;-80
2023/01/16 11:37:42;;;;;;;3.83;0.70;;;7.10;99.90;;;;;;4200333;28;20495;-80
2023/01/16 11:39:48;;;;;;;1.43;0.70;;;7.20;99.90;;;;;;4191515;28;20470;-79
2023/01/16 11:41:54;;;;;;;1.17;0.50;;;7.30;99.90;;;;;;4195171;28;20493;-80
2023/01/16 11:46:38;;;;;;;4.10;0.80;;;7.40;99.90;;;;;;4195084;28;20498;-80
2023/01/16 11:48:41;;;;;;;1.50;0.70;;;7.50;99.90;;;;;;4193047;28;20521;-79
2023/01/16 11:50:49;;;;;;;4.60;0.83;;;7.60;99.90;;;;;;4195261;28;20456;-79
2023/01/16 11:52:51;;;;;;;3.23;0.90;;;7.60;99.90;;;;;;4194549;28;20490;-79